Time;durP1;ratioP1;P1;durP2;ratioP2;P2;SDS_P1;SDS_P2;PMS_P1;PMS_P2;Temp;Humidity;BMP_temperature;BMP_pressure;BME280_temperature;BME280_humidity;BME280_pressure;Samples;Min_cycle;Max_cycle;Signal;HPM_P1;HPM_P2
2022/10/29 00:02:18;;;;;;;32.78;20.25;;;15.20;99.90;;;;;;5019962;28;20041;-78
2022/10/29 00:04:45;;;;;;;32.47;19.75;;;15.30;99.90;;;;;;5046349;28;20453;-78
2022/10/29 00:07:12;;;;;;;29.50;19.13;;;15.30;99.90;;;;;;5031734;28;20037;-79
2022/10/29 00:13:47;;;;;;;29.75;19.85;;;15.30;99.90;;;;;;5018511;28;20048;-80
2022/10/29 00:16:18;;;;;;;36.45;21.27;;;15.30;99.90;;;;;;5024956;28;20445;-76
2022/10/29 00:18:45;;;;;;;26.08;21.45;;;15.30;99.90;;;;;;5033720;28;20053;-75
2022/10/29 00:21:17;;;;;;;29.60;21.85;;;15.20;99.90;;;;;;5035586;28;20052;-76
2022/10/29 00:23:45;;;;;;;31.65;20.65;;;15.30;99.90;;;;;;5032884;28;20045;-76
2022/10/29 00:26:12;;;;;;;33.63;20.40;;;15.20;99.90;;;;;;5030783;28;20044;-77
2022/10/29 00:28:39;;;;;;;31.67;21.25;;;15.30;99.90;;;;;;5019206;28;20053;-77
2022/10/29 00:31:11;;;;;;;36.05;22.38;;;15.40;99.90;;;;;;5039343;28;20042;-75
2022/10/29 00:33:38;;;;;;;31.35;21.55;;;15.30;99.90;;;;;;5022015;28;20056;-77
2022/10/29 00:36:09;;;;;;;29.27;21.25;;;15.20;99.90;;;;;;5027134;28;20045;-77
2022/10/29 00:38:36;;;;;;;32.08;21.35;;;15.10;99.90;;;;;;5027284;28;20131;-77
2022/10/29 00:41:05;;;;;;;36.35;21.50;;;15.10;99.90;;;;;;5036413;28;20058;-77
2022/10/29 00:43:34;;;;;;;33.03;21.92;;;15.10;99.90;;;;;;5024912;28;20049;-77
2022/10/29 00:46:08;;;;;;;27.33;21.90;;;15.10;99.90;;;;;;5025015;28;20047;-77
2022/10/29 00:48:39;;;;;;;26.45;21.95;;;15.20;99.90;;;;;;5027664;28;20038;-77
2022/10/29 00:51:08;;;;;;;36.58;21.55;;;15.20;99.90;;;;;;5005301;28;20136;-77
2022/10/29 00:53:41;;;;;;;30.70;20.33;;;15.30;99.90;;;;;;5024115;28;20041;-78
2022/10/29 00:56:08;;;;;;;34.03;21.83;;;15.30;99.90;;;;;;5027341;28;20506;-78
2022/10/29 00:58:35;;;;;;;31.40;20.65;;;15.30;99.90;;;;;;5032627;28;20593;-77
2022/10/29 01:01:01;;;;;;;39.47;21.58;;;15.30;99.90;;;;;;5033848;28;20095;-75
2022/10/29 01:03:28;;;;;;;29.83;20.98;;;15.40;99.90;;;;;;5027341;28;20037;-77
2022/10/29 01:06:02;;;;;;;30.95;21.33;;;15.40;99.90;;;;;;5012957;28;20033;-78
2022/10/29 01:08:29;;;;;;;32.27;20.93;;;15.50;99.90;;;;;;5026520;28;20577;-77
2022/10/29 01:11:24;;;;;;;27.10;20.83;;;15.40;99.90;;;;;;5018565;28;20055;-76
2022/10/29 01:14:06;;;;;;;30.48;20.90;;;15.20;99.90;;;;;;5029539;28;20056;-78
2022/10/29 01:16:53;;;;;;;29.42;22.23;;;15.20;99.90;;;;;;5036664;28;20040;-77
2022/10/29 01:19:52;;;;;;;29.92;21.58;;;15.30;99.90;;;;;;5034932;28;20044;-78
2022/10/29 01:22:40;;;;;;;26.27;20.75;;;15.20;99.90;;;;;;5044135;28;20044;-76
2022/10/29 01:25:28;;;;;;;39.88;22.90;;;15.20;99.90;;;;;;5039015;28;20045;-78
2022/10/29 01:28:23;;;;;;;38.08;21.90;;;15.20;99.90;;;;;;5033490;28;20132;-78
2022/10/29 01:31:12;;;;;;;34.42;21.67;;;15.20;99.90;;;;;;5034085;28;20037;-77
2022/10/29 01:34:03;;;;;;;40.25;21.27;;;15.20;99.90;;;;;;5055498;28;20050;-78
2022/10/29 01:36:59;;;;;;;29.50;22.85;;;15.10;99.90;;;;;;5039372;28;20048;-76
2022/10/29 01:39:31;;;;;;;31.67;22.33;;;15.10;99.90;;;;;;5016532;28;20052;-81
2022/10/29 01:42:23;;;;;;;34.10;22.35;;;15.10;99.90;;;;;;5054870;28;20087;-76
2022/10/29 01:44:57;;;;;;;32.17;22.70;;;15.00;99.90;;;;;;4994101;28;1075493;-76
2022/10/29 01:47:36;;;;;;;33.67;22.85;;;15.00;99.90;;;;;;5038206;28;20134;-77
2022/10/29 01:50:07;;;;;;;31.73;23.38;;;15.00;99.90;;;;;;5032509;28;20064;-77
2022/10/29 01:52:36;;;;;;;40.15;22.55;;;15.20;99.90;;;;;;5033216;28;20041;-77
2022/10/29 01:55:03;;;;;;;34.20;22.05;;;15.20;99.90;;;;;;5021772;28;20132;-78
2022/10/29 01:57:36;;;;;;;34.90;21.45;;;15.00;99.90;;;;;;5055540;28;20143;-78
2022/10/29 02:00:10;;;;;;;39.58;20.75;;;14.80;99.90;;;;;;5034301;28;20604;-78
2022/10/29 02:02:58;;;;;;;34.60;21.95;;;14.80;99.90;;;;;;5032112;28;20049;-76
2022/10/29 02:05:53;;;;;;;31.60;19.73;;;14.80;99.90;;;;;;5056352;28;20493;-76
2022/10/29 02:08:49;;;;;;;33.63;21.08;;;14.90;99.90;;;;;;5053655;28;20059;-77
2022/10/29 02:11:49;;;;;;;31.30;19.58;;;15.10;99.90;;;;;;5014021;28;20045;-78
2022/10/29 02:14:32;;;;;;;32.38;20.98;;;14.90;99.90;;;;;;5036626;28;20045;-75
2022/10/29 02:16:59;;;;;;;46.95;21.75;;;14.90;99.90;;;;;;5015976;28;20052;-77
2022/10/29 02:19:30;;;;;;;31.17;19.88;;;14.90;99.90;;;;;;5038842;28;20681;-76
2022/10/29 02:21:57;;;;;;;32.38;20.40;;;14.90;99.90;;;;;;5038593;28;20229;-77
2022/10/29 02:24:24;;;;;;;31.95;21.80;;;14.90;99.90;;;;;;5038863;28;20055;-76
2022/10/29 02:26:51;;;;;;;34.78;21.70;;;14.90;99.90;;;;;;5030130;28;20038;-76
2022/10/29 02:29:18;;;;;;;37.20;20.95;;;14.90;99.90;;;;;;5018436;28;21099;-77
2022/10/29 02:31:45;;;;;;;29.60;21.15;;;14.80;99.90;;;;;;5046601;28;20080;-76
2022/10/29 02:34:11;;;;;;;35.95;21.70;;;14.80;99.90;;;;;;5031509;28;20087;-76
2022/10/29 02:36:38;;;;;;;41.83;21.83;;;14.80;99.90;;;;;;5030826;28;20646;-77
2022/10/29 02:39:05;;;;;;;32.85;21.88;;;14.70;99.90;;;;;;5051100;28;20553;-76
2022/10/29 02:41:31;;;;;;;36.38;21.20;;;14.80;99.90;;;;;;5018554;28;20044;-76
2022/10/29 02:43:58;;;;;;;30.33;20.42;;;14.80;99.90;;;;;;5034576;28;20079;-77
2022/10/29 02:46:25;;;;;;;32.72;19.65;;;14.70;99.90;;;;;;5042539;28;20029;-77
2022/10/29 02:48:52;;;;;;;41.53;21.42;;;14.70;99.90;;;;;;5030528;28;20065;-77
2022/10/29 02:51:18;;;;;;;41.45;21.60;;;14.50;99.90;;;;;;5033623;28;20045;-76
2022/10/29 02:53:45;;;;;;;33.35;21.30;;;14.30;99.90;;;;;;5040459;28;20052;-77
2022/10/29 02:56:12;;;;;;;29.50;22.55;;;14.30;99.90;;;;;;5038808;28;20049;-77
2022/10/29 02:58:42;;;;;;;44.08;22.20;;;14.30;99.90;;;;;;5031269;28;20160;-77
2022/10/29 03:01:08;;;;;;;41.65;23.27;;;14.30;99.90;;;;;;5027765;28;20048;-77
2022/10/29 03:03:35;;;;;;;40.97;22.77;;;14.20;99.90;;;;;;5040835;28;20094;-77
2022/10/29 03:06:02;;;;;;;38.97;23.23;;;14.20;99.90;;;;;;5034009;28;20041;-78
2022/10/29 03:08:31;;;;;;;38.30;23.13;;;14.10;99.90;;;;;;5028525;28;20137;-77
2022/10/29 03:10:57;;;;;;;41.22;24.55;;;14.00;99.90;;;;;;5036911;28;20250;-77
2022/10/29 03:13:24;;;;;;;39.60;21.58;;;14.00;99.90;;;;;;5034643;28;20778;-76
2022/10/29 03:15:51;;;;;;;34.75;21.88;;;14.00;99.90;;;;;;5044133;28;20037;-79
2022/10/29 03:18:18;;;;;;;34.22;21.35;;;13.90;99.90;;;;;;5019648;28;20132;-79
2022/10/29 03:20:46;;;;;;;35.42;21.85;;;13.80;99.90;;;;;;5033075;28;20048;-77
2022/10/29 03:23:13;;;;;;;37.00;23.77;;;13.70;99.90;;;;;;5033537;28;20056;-76
2022/10/29 03:25:39;;;;;;;34.65;23.50;;;13.60;99.90;;;;;;5041079;28;20051;-78
2022/10/29 03:28:06;;;;;;;38.15;24.60;;;13.50;99.90;;;;;;5031532;28;20063;-76
2022/10/29 03:30:33;;;;;;;27.98;24.10;;;13.40;99.90;;;;;;5046642;28;20654;-77
2022/10/29 03:33:00;;;;;;;37.28;24.15;;;13.50;99.90;;;;;;5035829;28;20486;-76
2022/10/29 03:35:26;;;;;;;39.90;26.38;;;13.60;99.90;;;;;;5036479;28;20132;-77
2022/10/29 03:37:53;;;;;;;36.05;23.85;;;13.50;99.90;;;;;;5028218;28;20115;-77
2022/10/29 03:40:20;;;;;;;38.05;24.58;;;13.40;99.90;;;;;;5037045;28;20045;-79
2022/10/29 03:42:46;;;;;;;40.65;23.30;;;13.30;99.90;;;;;;5037148;28;20043;-77
2022/10/29 03:45:17;;;;;;;44.13;23.67;;;13.30;99.90;;;;;;5033767;28;20589;-76
2022/10/29 03:47:43;;;;;;;43.53;26.13;;;13.30;99.90;;;;;;5024504;28;20045;-77
2022/10/29 03:50:10;;;;;;;45.05;24.70;;;13.20;99.90;;;;;;5032432;28;20128;-78
2022/10/29 03:52:37;;;;;;;37.20;21.98;;;13.20;99.90;;;;;;5032111;28;20049;-77
2022/10/29 03:55:04;;;;;;;40.38;21.73;;;13.20;99.90;;;;;;5028672;28;20045;-78
2022/10/29 03:57:31;;;;;;;42.45;24.02;;;13.10;99.90;;;;;;5029218;28;20042;-77
2022/10/29 03:59:59;;;;;;;42.03;22.40;;;13.10;99.90;;;;;;5030066;28;20047;-78
2022/10/29 04:02:26;;;;;;;48.10;24.30;;;13.20;99.90;;;;;;5035493;28;20045;-76
2022/10/29 04:04:53;;;;;;;39.03;23.55;;;13.30;99.90;;;;;;5037336;28;20041;-78
2022/10/29 04:07:19;;;;;;;45.97;22.67;;;13.20;99.90;;;;;;5035633;28;20033;-77
2022/10/29 04:09:46;;;;;;;46.95;23.05;;;13.10;99.90;;;;;;5036528;28;20579;-77
2022/10/29 04:12:13;;;;;;;47.97;22.10;;;13.10;99.90;;;;;;5030789;28;20495;-76
2022/10/29 04:14:41;;;;;;;40.67;21.77;;;13.00;99.90;;;;;;5031487;28;20057;-77
2022/10/29 04:17:11;;;;;;;38.22;21.27;;;13.10;99.90;;;;;;5014059;28;20106;-77
2022/10/29 04:19:38;;;;;;;39.92;18.98;;;13.10;99.90;;;;;;5032228;28;20049;-78
2022/10/29 04:22:04;;;;;;;37.42;21.58;;;13.10;99.90;;;;;;5019011;28;20183;-78
2022/10/29 04:24:52;;;;;;;48.28;22.02;;;13.20;99.90;;;;;;5031699;28;20037;-77
2022/10/29 04:27:38;;;;;;;35.75;21.73;;;13.10;99.90;;;;;;5028772;28;20494;-78
2022/10/29 04:30:28;;;;;;;42.60;24.38;;;13.00;99.90;;;;;;5030090;28;20482;-76
2022/10/29 04:32:59;;;;;;;40.03;23.85;;;12.90;99.90;;;;;;5023111;28;20069;-77
2022/10/29 04:35:28;;;;;;;46.95;24.63;;;12.90;99.90;;;;;;5034493;28;20044;-78
2022/10/29 04:37:54;;;;;;;40.17;24.15;;;12.80;99.90;;;;;;5037083;28;20045;-77
2022/10/29 04:40:23;;;;;;;40.85;23.95;;;12.90;99.90;;;;;;5021733;28;20063;-78
2022/10/29 04:42:53;;;;;;;49.60;24.30;;;13.00;99.90;;;;;;5021420;28;20037;-78
2022/10/29 04:45:20;;;;;;;48.55;23.90;;;13.00;99.90;;;;;;5018662;28;20053;-77
2022/10/29 04:47:46;;;;;;;42.72;23.52;;;13.00;99.90;;;;;;5030028;28;20521;-76
2022/10/29 04:50:13;;;;;;;44.08;24.33;;;13.10;99.90;;;;;;5033596;28;20055;-77
2022/10/29 04:52:40;;;;;;;42.92;23.52;;;13.00;99.90;;;;;;5027993;28;20144;-75
2022/10/29 04:55:10;;;;;;;49.88;25.67;;;12.90;99.90;;;;;;5027576;28;20475;-77
2022/10/29 04:57:36;;;;;;;49.33;23.30;;;13.00;99.90;;;;;;5032088;28;20044;-77
2022/10/29 05:00:03;;;;;;;52.78;23.02;;;13.00;99.90;;;;;;5036624;28;20045;-77
2022/10/29 05:02:30;;;;;;;44.35;24.45;;;12.90;99.90;;;;;;5007691;28;20045;-76
2022/10/29 05:04:57;;;;;;;50.60;24.80;;;12.90;99.90;;;;;;5030585;28;20574;-76
2022/10/29 05:07:23;;;;;;;50.30;23.88;;;12.80;99.90;;;;;;5032369;28;20064;-77
2022/10/29 05:09:50;;;;;;;49.88;23.80;;;12.70;99.90;;;;;;5032105;28;20476;-76
2022/10/29 05:12:17;;;;;;;43.35;22.95;;;12.60;99.90;;;;;;5033788;28;20498;-77
2022/10/29 05:14:43;;;;;;;48.78;23.70;;;12.50;99.90;;;;;;5033666;28;20526;-78
2022/10/29 05:17:10;;;;;;;42.42;22.70;;;12.50;99.90;;;;;;5030439;28;20053;-77
2022/10/29 05:19:37;;;;;;;47.92;23.13;;;12.40;99.90;;;;;;5040919;28;20591;-76
2022/10/29 05:22:03;;;;;;;54.35;26.27;;;12.50;99.90;;;;;;5030759;28;20658;-77
2022/10/29 05:24:30;;;;;;;59.22;28.77;;;12.70;99.90;;;;;;5014549;28;20036;-78
2022/10/29 05:26:57;;;;;;;59.35;27.10;;;12.80;99.90;;;;;;5028427;28;20153;-77
2022/10/29 05:29:23;;;;;;;58.53;27.48;;;12.80;99.90;;;;;;5042970;28;20037;-77
2022/10/29 05:31:53;;;;;;;59.80;25.00;;;12.80;99.90;;;;;;5024729;28;20075;-77
2022/10/29 05:34:20;;;;;;;62.25;26.77;;;12.90;99.90;;;;;;5010738;28;20410;-76
2022/10/29 05:36:47;;;;;;;55.55;27.02;;;12.80;99.90;;;;;;5034757;28;20199;-76
2022/10/29 05:39:14;;;;;;;48.92;25.50;;;12.70;99.90;;;;;;5034054;28;20544;-78
2022/10/29 05:41:40;;;;;;;43.38;24.70;;;12.70;99.90;;;;;;5033198;28;20136;-77
2022/10/29 05:44:07;;;;;;;48.10;26.35;;;12.70;99.90;;;;;;5045911;28;20414;-78
2022/10/29 05:46:34;;;;;;;56.25;26.75;;;12.70;99.90;;;;;;5029002;28;20128;-77
2022/10/29 05:49:01;;;;;;;49.03;25.38;;;12.50;99.90;;;;;;5029847;28;20141;-78
2022/10/29 05:51:28;;;;;;;45.30;23.63;;;12.40;99.90;;;;;;5024483;28;20556;-77
2022/10/29 05:53:55;;;;;;;44.45;24.50;;;12.30;99.90;;;;;;5027953;28;20064;-78
2022/10/29 05:56:22;;;;;;;60.60;26.15;;;12.30;99.90;;;;;;5028546;28;20037;-78
2022/10/29 05:58:49;;;;;;;45.00;25.08;;;12.40;99.90;;;;;;5036095;28;20058;-76
2022/10/29 06:01:18;;;;;;;55.42;24.33;;;12.40;99.90;;;;;;5040146;28;20037;-77
2022/10/29 06:03:46;;;;;;;58.03;26.00;;;12.40;99.90;;;;;;5044707;28;20763;-78
2022/10/29 06:06:12;;;;;;;47.13;25.58;;;12.20;99.90;;;;;;5035668;28;20373;-78
2022/10/29 06:08:39;;;;;;;51.85;23.73;;;12.10;99.90;;;;;;5037329;28;20041;-77
2022/10/29 06:11:06;;;;;;;51.92;25.85;;;12.00;99.90;;;;;;5027789;28;20060;-76
2022/10/29 06:13:32;;;;;;;59.17;27.40;;;12.10;99.90;;;;;;5033451;28;20041;-77
2022/10/29 06:15:59;;;;;;;56.95;27.08;;;12.20;99.90;;;;;;5025031;28;20300;-77
2022/10/29 06:18:26;;;;;;;45.88;24.83;;;12.30;99.90;;;;;;5032416;28;20049;-77
2022/10/29 06:20:56;;;;;;;56.22;23.17;;;12.30;99.90;;;;;;5013891;28;20175;-77
2022/10/29 06:23:23;;;;;;;52.63;25.30;;;12.30;99.90;;;;;;5048397;28;20465;-77
2022/10/29 06:25:49;;;;;;;46.50;25.17;;;12.20;99.90;;;;;;5037924;28;20138;-75
2022/10/29 06:28:17;;;;;;;58.80;24.63;;;12.20;99.90;;;;;;5021521;28;20072;-77
2022/10/29 06:30:47;;;;;;;54.35;26.05;;;12.30;99.90;;;;;;5039019;28;20122;-77
2022/10/29 06:33:16;;;;;;;45.75;23.58;;;12.10;99.90;;;;;;5029092;28;20068;-76
2022/10/29 06:35:42;;;;;;;44.25;21.42;;;12.10;99.90;;;;;;5045867;28;20055;-77
2022/10/29 06:38:09;;;;;;;39.33;21.88;;;12.10;99.90;;;;;;5036647;22;20664;-77
2022/10/29 06:40:39;;;;;;;47.10;21.70;;;12.20;99.90;;;;;;5024265;28;21145;-75
2022/10/29 06:43:10;;;;;;;51.10;20.42;;;12.20;99.90;;;;;;5020211;28;20068;-77
2022/10/29 06:45:37;;;;;;;50.03;22.23;;;12.20;99.90;;;;;;5023278;28;20041;-78
2022/10/29 06:48:04;;;;;;;37.25;20.85;;;12.10;99.90;;;;;;5023600;28;20067;-76
2022/10/29 06:50:31;;;;;;;39.10;22.30;;;12.10;99.90;;;;;;5020906;28;20052;-76
2022/10/29 06:53:03;;;;;;;46.53;23.90;;;12.00;99.90;;;;;;5023943;28;20159;-76
2022/10/29 06:55:34;;;;;;;40.83;22.25;;;12.10;99.90;;;;;;5022986;28;20057;-76
2022/10/29 06:58:11;;;;;;;53.42;25.00;;;12.20;99.90;;;;;;5019827;28;20049;-76
2022/10/29 07:00:39;;;;;;;39.20;21.45;;;12.30;99.90;;;;;;5024679;28;20453;-77
2022/10/29 07:03:07;;;;;;;41.80;22.38;;;12.50;99.90;;;;;;5027611;28;20465;-76
2022/10/29 07:05:35;;;;;;;44.22;22.20;;;12.50;99.90;;;;;;5030746;28;20059;-76
2022/10/29 07:08:01;;;;;;;37.88;23.17;;;12.50;99.90;;;;;;5052054;28;20635;-77
2022/10/29 07:10:30;;;;;;;46.72;24.75;;;12.50;99.90;;;;;;5021874;28;20041;-76
2022/10/29 07:12:57;;;;;;;45.47;24.98;;;12.60;99.90;;;;;;5025133;28;20419;-78
2022/10/29 07:15:25;;;;;;;40.28;24.02;;;12.60;99.90;;;;;;5026113;28;20045;-77
2022/10/29 07:17:59;;;;;;;47.95;23.83;;;12.70;99.90;;;;;;5014684;28;20037;-77
2022/10/29 07:20:29;;;;;;;50.25;23.65;;;12.70;99.90;;;;;;5018062;28;20041;-77
2022/10/29 07:22:57;;;;;;;45.83;24.52;;;12.90;99.90;;;;;;5027887;28;20558;-79
2022/10/29 07:25:24;;;;;;;36.75;23.55;;;12.90;99.90;;;;;;5052181;28;20042;-78
2022/10/29 07:27:51;;;;;;;39.17;24.77;;;13.00;99.90;;;;;;5048859;28;20041;-79
2022/10/29 07:30:18;;;;;;;41.03;23.48;;;13.10;99.90;;;;;;5033358;28;20041;-78
2022/10/29 07:32:45;;;;;;;40.85;23.38;;;13.00;99.90;;;;;;5043740;28;20045;-76
2022/10/29 07:35:12;;;;;;;47.92;23.48;;;13.00;99.90;;;;;;5012920;28;20395;-80
2022/10/29 07:37:39;;;;;;;38.70;21.85;;;13.00;99.90;;;;;;5032516;28;20063;-76
2022/10/29 07:40:06;;;;;;;36.75;21.73;;;13.20;99.90;;;;;;5028127;28;20064;-78
2022/10/29 07:42:33;;;;;;;35.05;21.67;;;13.40;99.90;;;;;;5031770;28;20056;-80
2022/10/29 07:45:00;;;;;;;38.15;21.30;;;13.50;99.90;;;;;;5028779;28;20055;-77
2022/10/29 07:47:27;;;;;;;52.00;20.42;;;13.60;99.90;;;;;;5036806;28;20087;-78
2022/10/29 07:50:00;;;;;;;34.70;21.08;;;13.70;99.90;;;;;;5026293;28;20040;-78
2022/10/29 07:52:26;;;;;;;35.88;22.02;;;13.70;99.90;;;;;;5028889;28;20371;-78
2022/10/29 07:54:53;;;;;;;37.50;20.90;;;13.70;99.90;;;;;;5034069;28;20036;-77
2022/10/29 07:57:21;;;;;;;34.13;21.35;;;13.80;99.90;;;;;;5030355;28;20102;-77
2022/10/29 07:59:49;;;;;;;42.00;20.75;;;13.90;99.90;;;;;;5016130;28;20184;-78
2022/10/29 08:02:15;;;;;;;32.08;19.77;;;14.00;99.90;;;;;;5026746;28;20048;-78
2022/10/29 08:04:42;;;;;;;32.88;19.48;;;14.10;99.90;;;;;;5031309;28;20037;-77
2022/10/29 08:07:09;;;;;;;38.20;19.20;;;14.20;99.90;;;;;;5012669;28;20041;-78
2022/10/29 08:09:35;;;;;;;32.05;20.15;;;14.30;99.90;;;;;;5030021;28;20060;-79
2022/10/29 08:12:03;;;;;;;40.60;19.10;;;14.50;99.90;;;;;;5041601;28;20136;-78
2022/10/29 08:14:30;;;;;;;32.60;19.35;;;14.40;99.90;;;;;;5015547;28;20045;-78
2022/10/29 08:16:57;;;;;;;28.00;19.95;;;14.40;99.90;;;;;;5028409;28;20048;-77
2022/10/29 08:19:23;;;;;;;30.02;18.48;;;14.50;99.90;;;;;;5043197;28;20033;-78
2022/10/29 08:21:50;;;;;;;29.38;18.35;;;14.60;99.90;;;;;;5027777;28;20051;-78
2022/10/29 08:24:18;;;;;;;32.50;18.23;;;14.80;99.90;;;;;;5014450;28;20137;-79
2022/10/29 08:26:45;;;;;;;25.00;18.08;;;14.90;99.90;;;;;;5035441;28;20045;-78
2022/10/29 08:29:11;;;;;;;28.50;19.52;;;15.10;99.90;;;;;;5031612;28;20048;-78
2022/10/29 08:31:39;;;;;;;25.98;20.33;;;15.30;99.90;;;;;;5031075;28;20068;-77
2022/10/29 08:34:06;;;;;;;26.48;20.35;;;15.50;99.90;;;;;;5031628;28;20135;-76
2022/10/29 08:36:37;;;;;;;24.77;20.15;;;15.60;99.90;;;;;;5029616;28;20045;-78
2022/10/29 08:39:03;;;;;;;33.90;21.15;;;15.80;99.90;;;;;;5042924;28;20044;-76
2022/10/29 08:42:26;;;;;;;30.45;21.85;;;15.90;99.90;;;;;;5033650;28;20128;-76
2022/10/29 08:45:12;;;;;;;24.67;21.27;;;16.10;99.90;;;;;;4965081;28;20121;-76
2022/10/29 08:47:46;;;;;;;;;;;16.20;99.90;;;;;;4983399;28;20137;-75
2022/10/29 08:50:45;;;;;;;33.80;21.55;;;16.10;99.90;;;;;;5001669;28;19974;-78
2022/10/29 08:53:20;;;;;;;38.67;21.88;;;16.10;99.90;;;;;;5026544;28;20140;-76
2022/10/29 08:55:50;;;;;;;30.90;21.20;;;16.20;99.90;;;;;;5014773;28;20124;-76
2022/10/29 08:58:41;;;;;;;31.15;23.40;;;16.10;99.90;;;;;;5044574;28;20061;-77
2022/10/29 09:01:11;;;;;;;40.50;24.65;;;16.30;99.90;;;;;;5027401;28;20540;-76
2022/10/29 09:03:38;;;;;;;30.17;23.90;;;16.40;99.90;;;;;;5009802;28;20489;-78
2022/10/29 09:06:33;;;;;;;27.67;23.13;;;16.50;99.90;;;;;;5028414;28;20501;-76
2022/10/29 09:09:28;;;;;;;27.13;24.13;;;16.60;99.90;;;;;;5035462;28;20099;-76
2022/10/29 09:12:09;;;;;;;32.58;24.15;;;16.70;99.90;;;;;;5019143;28;20052;-79
2022/10/29 09:15:14;;;;;;;44.47;25.45;;;17.00;99.90;;;;;;5023264;28;20084;-75
2022/10/29 09:18:15;;;;;;;28.38;25.65;;;17.20;99.90;;;;;;5015357;28;20136;-76
2022/10/29 09:21:00;;;;;;;28.00;25.35;;;17.20;99.90;;;;;;5005863;28;20037;-77
2022/10/29 09:24:08;;;;;;;28.92;25.77;;;17.40;99.90;;;;;;5041443;28;20043;-75
2022/10/29 09:26:58;;;;;;;28.83;25.15;;;17.50;99.90;;;;;;5028637;28;20089;-74
2022/10/29 09:29:48;;;;;;;29.38;26.48;;;17.60;99.90;;;;;;5022072;28;20087;-76
2022/10/29 09:32:28;;;;;;;30.52;27.52;;;17.70;99.90;;;;;;5023289;28;20110;-75
2022/10/29 09:35:01;;;;;;;30.90;26.85;;;17.80;99.90;;;;;;5053811;28;20061;-76
2022/10/29 09:38:04;;;;;;;30.90;27.88;;;17.90;99.90;;;;;;5028460;28;20044;-76
2022/10/29 09:40:35;;;;;;;29.48;26.55;;;18.00;99.90;;;;;;5013117;28;20136;-75
2022/10/29 09:43:31;;;;;;;28.77;26.38;;;18.10;99.90;;;;;;5028153;28;20442;-76
2022/10/29 09:46:26;;;;;;;35.22;26.75;;;18.40;99.90;;;;;;5039900;28;20171;-76
2022/10/29 09:49:00;;;;;;;30.83;27.80;;;18.60;99.90;;;;;;5048591;28;20041;-75
2022/10/29 09:51:57;;;;;;;28.85;26.05;;;18.80;99.90;;;;;;5011318;28;20068;-75
2022/10/29 09:54:26;;;;;;;30.10;26.98;;;18.90;99.90;;;;;;5051130;28;20045;-76
2022/10/29 09:56:52;;;;;;;30.38;27.35;;;18.70;99.90;;;;;;5027945;28;20036;-77
2022/10/29 09:59:30;;;;;;;30.17;27.25;;;18.70;99.90;;;;;;5054646;28;20044;-76
2022/10/29 10:01:58;;;;;;;29.92;27.13;;;18.80;99.90;;;;;;5045657;28;20497;-75
2022/10/29 10:04:33;;;;;;;28.88;26.08;;;18.90;99.90;;;;;;5029861;28;20045;-77
2022/10/29 10:07:08;;;;;;;30.08;26.75;;;19.00;99.90;;;;;;5028391;28;20176;-75
2022/10/29 10:09:54;;;;;;;30.23;25.77;;;19.00;99.90;;;;;;5030362;28;20112;-76
2022/10/29 10:12:27;;;;;;;46.83;27.92;;;19.10;99.90;;;;;;5013100;28;20047;-75
2022/10/29 10:15:25;;;;;;;29.95;25.77;;;19.20;99.90;;;;;;5031076;28;20126;-75
2022/10/29 10:18:01;;;;;;;36.70;27.45;;;19.00;99.90;;;;;;5026969;28;20053;-74
2022/10/29 10:20:45;;;;;;;32.83;26.63;;;18.80;99.90;;;;;;5029963;28;20128;-75
2022/10/29 10:23:27;;;;;;;76.05;30.15;;;18.70;99.90;;;;;;5035930;28;20804;-74
2022/10/29 10:25:56;;;;;;;28.88;25.83;;;18.70;99.90;;;;;;5027198;28;20057;-77
2022/10/29 10:28:33;;;;;;;28.30;25.52;;;18.80;99.90;;;;;;5043542;28;20543;-77
2022/10/29 10:31:03;;;;;;;29.17;26.15;;;19.00;99.90;;;;;;5023778;28;20099;-78
2022/10/29 10:33:33;;;;;;;33.78;25.10;;;19.20;99.90;;;;;;5029749;28;20048;-77
2022/10/29 10:36:09;;;;;;;27.00;24.38;;;19.40;99.90;;;;;;5028760;28;20052;-78
2022/10/29 10:38:45;;;;;;;27.67;25.10;;;19.50;99.90;;;;;;5012392;28;20059;-78
2022/10/29 10:41:13;;;;;;;27.38;24.65;;;19.70;99.90;;;;;;5059690;28;20387;-77
2022/10/29 10:43:43;;;;;;;32.53;25.88;;;19.70;99.90;;;;;;5031672;28;20041;-78
2022/10/29 10:46:21;;;;;;;27.45;24.48;;;19.80;99.90;;;;;;5031393;28;20040;-80
2022/10/29 10:49:04;;;;;;;27.40;24.63;;;19.90;99.90;;;;;;5019516;28;20063;-79
2022/10/29 10:51:34;;;;;;;34.55;26.58;;;19.70;99.90;;;;;;5046147;28;20037;-80
2022/10/29 10:54:24;;;;;;;28.23;25.42;;;19.70;99.90;;;;;;5049222;28;20063;-79
2022/10/29 10:57:15;;;;;;;29.35;26.60;;;19.60;99.90;;;;;;5029325;28;20124;-78
2022/10/29 10:59:59;;;;;;;30.10;26.83;;;19.80;99.90;;;;;;5031007;28;20135;-78
2022/10/29 11:02:32;;;;;;;30.13;26.95;;;20.00;99.90;;;;;;5059468;28;20084;-78
2022/10/29 11:05:07;;;;;;;29.13;26.50;;;19.90;99.90;;;;;;5048355;28;20068;-78
2022/10/29 11:07:40;;;;;;;60.78;29.27;;;19.70;99.90;;;;;;5028586;28;20055;-76
2022/10/29 11:10:11;;;;;;;31.75;28.17;;;19.80;99.90;;;;;;5019443;28;20110;-76
2022/10/29 11:12:49;;;;;;;35.50;26.83;;;19.90;99.90;;;;;;5015057;28;20076;-76
2022/10/29 11:15:22;;;;;;;27.92;25.40;;;20.00;99.90;;;;;;5048090;28;20045;-75
2022/10/29 11:18:11;;;;;;;30.15;26.17;;;20.00;99.90;;;;;;5027936;28;20067;-75
2022/10/29 11:20:42;;;;;;;31.45;28.55;;;19.90;99.90;;;;;;5022688;28;20177;-75
2022/10/29 11:23:43;;;;;;;31.20;28.10;;;20.10;99.90;;;;;;5026473;28;20079;-75
2022/10/29 11:26:28;;;;;;;32.30;29.27;;;20.20;99.90;;;;;;5044688;28;20059;-75
2022/10/29 11:29:13;;;;;;;37.60;29.85;;;20.30;99.90;;;;;;5049948;28;20045;-75
2022/10/29 11:31:42;;;;;;;29.80;26.77;;;20.40;99.90;;;;;;5011379;28;20037;-74
2022/10/29 11:34:19;;;;;;;32.83;30.00;;;20.40;99.90;;;;;;5023021;28;20048;-75
2022/10/29 11:37:00;;;;;;;31.23;27.98;;;20.20;99.90;;;;;;5030429;28;20036;-75
2022/10/29 11:39:44;;;;;;;32.80;27.67;;;20.10;99.90;;;;;;5031990;28;20486;-79
2022/10/29 11:42:12;;;;;;;28.92;26.08;;;20.10;99.90;;;;;;5044973;28;20045;-78
2022/10/29 11:44:39;;;;;;;27.85;25.15;;;20.00;99.90;;;;;;5025576;28;20052;-77
2022/10/29 11:47:18;;;;;;;29.13;26.42;;;19.90;99.90;;;;;;5023731;28;20069;-79
2022/10/29 11:49:56;;;;;;;32.03;29.08;;;19.80;99.90;;;;;;5027074;28;20370;-80
2022/10/29 11:52:30;;;;;;;30.17;27.27;;;19.80;99.90;;;;;;5038417;28;20072;-79
2022/10/29 11:55:26;;;;;;;29.90;26.80;;;19.90;99.90;;;;;;5006489;28;20145;-78
2022/10/29 11:58:15;;;;;;;31.70;26.55;;;20.00;99.90;;;;;;5011002;28;20494;-79
2022/10/29 12:01:08;;;;;;;30.58;27.52;;;19.80;99.90;;;;;;5027092;28;20546;-79
2022/10/29 12:03:53;;;;;;;30.40;27.55;;;19.80;99.90;;;;;;5024376;28;20126;-80
2022/10/29 12:06:55;;;;;;;30.65;26.58;;;19.90;99.90;;;;;;5023542;28;20395;-78
2022/10/29 12:09:56;;;;;;;30.50;26.95;;;19.90;99.90;;;;;;4985284;28;20068;-79
2022/10/29 12:12:51;;;;;;;29.98;26.95;;;20.10;99.90;;;;;;5021720;28;20038;-79
2022/10/29 12:15:40;;;;;;;31.23;25.27;;;20.20;99.90;;;;;;5025193;28;20140;-78
2022/10/29 12:18:25;;;;;;;32.05;29.20;;;20.30;99.90;;;;;;5026490;28;20075;-79
2022/10/29 12:21:23;;;;;;;30.70;27.77;;;20.50;99.90;;;;;;5010621;28;20056;-77
2022/10/29 12:24:20;;;;;;;32.05;28.52;;;20.60;99.90;;;;;;5021233;28;20103;-78
2022/10/29 12:27:02;;;;;;;30.30;27.13;;;20.70;99.90;;;;;;5023658;28;20082;-77
2022/10/29 12:29:38;;;;;;;34.42;28.50;;;20.60;99.90;;;;;;5008553;28;20245;-77
2022/10/29 12:32:15;;;;;;;33.80;30.67;;;20.70;99.90;;;;;;5041582;28;20586;-77
2022/10/29 12:35:01;;;;;;;32.60;30.02;;;20.50;99.90;;;;;;5026887;28;20046;-79
2022/10/29 12:37:56;;;;;;;31.38;28.35;;;20.60;99.90;;;;;;5054281;28;20136;-77
2022/10/29 12:40:32;;;;;;;31.55;28.25;;;20.70;99.90;;;;;;5008434;28;20056;-77
2022/10/29 12:43:05;;;;;;;31.50;28.45;;;20.80;99.90;;;;;;5017138;28;20045;-78
2022/10/29 12:45:44;;;;;;;30.75;28.15;;;20.90;99.90;;;;;;5027073;28;20055;-77
2022/10/29 12:48:52;;;;;;;39.95;28.90;;;21.10;99.90;;;;;;5025191;28;20041;-78
2022/10/29 12:51:37;;;;;;;32.00;28.73;;;21.20;99.90;;;;;;5039744;28;20049;-78
2022/10/29 12:54:24;;;;;;;30.17;27.25;;;21.20;99.90;;;;;;5024887;28;20077;-78
2022/10/29 12:56:51;;;;;;;30.40;27.20;;;21.50;99.90;;;;;;5040138;28;20056;-79
2022/10/29 12:59:27;;;;;;;30.05;26.98;;;21.70;99.90;;;;;;5042610;28;20041;-78
2022/10/29 13:01:54;;;;;;;33.10;27.35;;;21.80;99.90;;;;;;5017318;28;20041;-78
2022/10/29 13:05:10;;;;;;;30.63;27.77;;;21.80;99.90;;;;;;5025693;28;20494;-77
2022/10/29 13:07:46;;;;;;;29.40;26.88;;;21.90;99.90;;;;;;5044249;28;20108;-78